Platinum — SXSF — position and weather

sailwx.info

Track history (hours):
 
Tides and Currents Weather Stations Pressure Air Temp Water Temp Dewpoint Dewpoint Depression Visibility Wind Speed Wind Dir Waves Ship Positions

Platinum

Last reported at 2018-Mar-07 22:00 UTC. Time now 2018-Jun-18 17:38 UTC.
Position N 31°14' E 032°21'.
Warning: this ship's position is months out of date.

Length 183 m; draft 8.9 m.

Type: Ship (hazmat cat A). MMSI: 239277000.

Date/timePositionNaut miles runAvg speedWind from/ knotsBaromVisibWave heightAir tempDewpointWater temp
2018-Mar-07 22:00N 31°14' E 032°21'5 9.7
2018-Mar-07 21:30N 31°18' E 032°22'4 7.9
2018-Mar-07 21:00N 31°22' E 032°23'2 4.0
2018-Mar-07 20:30N 31°22' E 032°21'1 2.2
2018-Mar-07 19:59N 31°23' E 032°19'0 0.1
2018-Mar-07 19:30N 31°23' E 032°19'0 0.0
2018-Mar-07 19:00N 31°23' E 032°19'0 0.0
2018-Mar-07 17:40N 31°23' E 032°19'0 0.0
2018-Mar-07 17:29N 31°23' E 032°19'0 0.0
2018-Mar-07 17:01N 31°23' E 032°19'0 0.0
2018-Mar-07 16:27N 31°23' E 032°19'0 0.0
2018-Mar-07 15:57N 31°23' E 032°19'0 0.0
2018-Mar-07 15:30N 31°23' E 032°19'0 0.0
2018-Mar-07 15:00N 31°23' E 032°19'0 0.0
2018-Mar-07 14:30N 31°23' E 032°19'0 0.0
2018-Mar-07 14:00N 31°23' E 032°19'0 0.0
2018-Mar-07 13:30N 31°23' E 032°19'0 0.1
2018-Mar-07 13:00N 31°23' E 032°19'0 0.0
2018-Mar-07 12:30N 31°23' E 032°19'0 0.0
2018-Mar-07 11:27N 31°23' E 032°19'0 0.0
2018-Mar-07 10:53N 31°23' E 032°19'0 0.0
2018-Mar-07 10:29N 31°23' E 032°19'126 5.3
2018-Mar-06 10:40N 33°24' E 033°00'81 7.1
2018-Mar-05 23:21N 34°43' E 033°19'0 0.0
2018-Mar-05 23:00N 34°43' E 033°19'0 0.0
2018-Mar-05 22:28N 34°43' E 033°19'0 0.0
2018-Mar-05 03:39N 34°43' E 033°19'8 1.5
2018-Mar-04 22:46N 34°36' E 033°15'411.9
2018-Mar-04 22:28N 34°34' E 033°12'47711.3
2018-Mar-03 04:10N 37°11' E 023°57'211.7
2018-Mar-03 04:00N 37°13' E 023°56'611.5
2018-Mar-03 03:30N 37°19' E 023°53'811.2
2018-Mar-03 02:49N 37°26' E 023°50'411.3
2018-Mar-03 02:27N 37°29' E 023°47'511.2
2018-Mar-03 02:00N 37°34' E 023°45'611.6
2018-Mar-03 01:31N 37°40' E 023°42'611.9
2018-Mar-03 01:01N 37°45' E 023°39'611.4
2018-Mar-03 00:31N 37°50' E 023°35'4 8.5
2018-Mar-03 00:00N 37°51' E 023°30'0 0.1
2018-Mar-02 23:31N 37°51' E 023°30'0 0.3
2018-Mar-02 23:00N 37°51' E 023°31'0 0.2
2018-Mar-02 22:31N 37°51' E 023°30'0 0.1
2018-Mar-02 22:01N 37°52' E 023°30'0 0.1
2018-Mar-02 21:28N 37°52' E 023°30'0 0.1
2018-Mar-02 21:00N 37°52' E 023°30'0 0.1
2018-Mar-02 20:30N 37°51' E 023°30'0 0.1
2018-Mar-02 20:00N 37°52' E 023°30'0 0.2
2018-Mar-02 19:30N 37°51' E 023°30'0 0.0
2018-Mar-02 19:00N 37°51' E 023°30'0 0.1
2018-Mar-02 18:30N 37°51' E 023°30'0 0.2
2018-Mar-02 18:00N 37°52' E 023°30'0 0.1
2018-Mar-02 17:30N 37°51' E 023°30'0 0.1
2018-Mar-02 17:00N 37°51' E 023°30'0 0.1
2018-Mar-02 16:30N 37°51' E 023°30'0 0.1
2018-Mar-02 16:00N 37°51' E 023°30'0 0.0
2018-Mar-02 15:30N 37°51' E 023°30'0 0.0
2018-Mar-02 15:00N 37°51' E 023°30'0 0.1
2018-Mar-02 14:30N 37°51' E 023°30'0 0.1
2018-Mar-02 14:00N 37°52' E 023°30'0 0.2
2018-Mar-02 13:30N 37°51' E 023°30'1 2.7
2018-Mar-02 13:01N 37°51' E 023°29'3 5.5
2018-Mar-02 12:31N 37°51' E 023°25'510.8
2018-Mar-02 12:01N 37°52' E 023°19'510.9
2018-Mar-02 11:31N 37°53' E 023°12'4 8.9
2018-Mar-02 11:00N 37°54' E 023°06'1 1.3
2018-Mar-02 10:30N 37°54' E 023°06'0 0.1
2018-Mar-02 09:59N 37°54' E 023°06'0 0.2
2018-Mar-02 09:29N 37°54' E 023°06'0 0.1
2018-Mar-02 08:59N 37°54' E 023°06'0 0.1
2018-Mar-02 08:30N 37°54' E 023°06'0 0.0
2018-Mar-02 08:00N 37°54' E 023°06'0 0.1
2018-Mar-02 07:31N 37°54' E 023°06'0 0.1
2018-Mar-02 07:01N 37°54' E 023°06'0 0.0
2018-Mar-02 06:30N 37°54' E 023°06'0 0.1
2018-Mar-02 06:01N 37°54' E 023°06'0 0.1
2018-Mar-02 05:30N 37°54' E 023°06'0 0.1
2018-Mar-02 05:01N 37°54' E 023°06'0 0.0
2018-Mar-02 04:31N 37°54' E 023°06'0 0.0
2018-Mar-02 04:01N 37°54' E 023°06'0 0.0
2018-Mar-02 03:30N 37°54' E 023°06'0 0.0
2018-Mar-02 03:00N 37°54' E 023°06'0 0.0
2018-Mar-02 02:30N 37°54' E 023°06'0 0.0
2018-Mar-02 02:00N 37°54' E 023°06'0 0.1
2018-Mar-02 01:30N 37°54' E 023°06'0 0.0
2018-Mar-02 01:00N 37°54' E 023°06'0 0.0
2018-Mar-02 00:29N 37°54' E 023°06'0 0.0
2018-Mar-02 00:00N 37°54' E 023°06'0 0.0
2018-Mar-01 23:30N 37°54' E 023°06'0 0.0
2018-Mar-01 23:01N 37°54' E 023°06'0 0.0
2018-Mar-01 22:31N 37°54' E 023°06'0 0.1
2018-Mar-01 22:01N 37°54' E 023°06'0 0.0
2018-Mar-01 21:31N 37°54' E 023°06'0 0.0
2018-Mar-01 21:01N 37°54' E 023°06'0 0.0
2018-Mar-01 20:30N 37°54' E 023°06'0 0.0
2018-Mar-01 20:01N 37°54' E 023°06'0 0.0
2018-Mar-01 19:30N 37°54' E 023°06'0 0.0
2018-Mar-01 19:00N 37°54' E 023°06'0 0.0
2018-Mar-01 18:31N 37°54' E 023°06'0 0.2
2018-Mar-01 18:00N 37°54' E 023°06'0 0.1
2018-Mar-01 17:30N 37°54' E 023°06'0 0.1
2018-Mar-01 17:00N 37°54' E 023°06'0 0.0
2018-Mar-01 16:30N 37°54' E 023°06'0 0.1
2018-Mar-01 16:01N 37°54' E 023°06'0 0.0
2018-Mar-01 15:30N 37°54' E 023°06'0 0.1
2018-Mar-01 15:00N 37°54' E 023°06'0 0.0
2018-Mar-01 14:30N 37°54' E 023°06'0 0.2
2018-Mar-01 14:00N 37°54' E 023°06'0 0.0
2018-Mar-01 13:30N 37°54' E 023°06'0 0.1
2018-Mar-01 13:00N 37°54' E 023°06'0 0.0
2018-Mar-01 12:30N 37°54' E 023°06'0 0.0
2018-Mar-01 12:00N 37°54' E 023°06'0 0.0
2018-Mar-01 11:30N 37°54' E 023°06'0 0.0
2018-Mar-01 11:00N 37°54' E 023°06'0 0.1
2018-Mar-01 10:30N 37°54' E 023°06'0 0.1
2018-Mar-01 10:00N 37°54' E 023°06'0 0.2
2018-Mar-01 09:30N 37°54' E 023°06'0 0.3
2018-Mar-01 09:00N 37°54' E 023°06'0 0.1
2018-Mar-01 08:31N 37°54' E 023°06'0 0.0
2018-Mar-01 08:00N 37°54' E 023°06'0 0.0
2018-Mar-01 07:30N 37°54' E 023°06'0 0.0
2018-Mar-01 07:01N 37°54' E 023°06'0 0.1
2018-Mar-01 06:30N 37°54' E 023°06'0 0.0
2018-Mar-01 06:00N 37°54' E 023°06'0 0.0
2018-Mar-01 05:31N 37°54' E 023°06'0 0.0
2018-Mar-01 05:00N 37°54' E 023°06'0 0.0
2018-Mar-01 04:30N 37°54' E 023°06'0 0.0
2018-Mar-01 04:00N 37°54' E 023°06'0 0.0
2018-Mar-01 03:30N 37°54' E 023°06'0 0.1
2018-Mar-01 03:01N 37°54' E 023°06'0 0.0
2018-Mar-01 02:30N 37°54' E 023°06'0 0.0
2018-Mar-01 02:00N 37°54' E 023°06'0 0.0
2018-Mar-01 01:30N 37°54' E 023°06'0 0.1
2018-Mar-01 01:00N 37°54' E 023°06'0 0.0
2018-Mar-01 00:30N 37°54' E 023°06'0 0.0
2018-Mar-01 00:00N 37°54' E 023°06'0 0.0
2018-Feb-28 23:30N 37°54' E 023°06'0 0.1
2018-Feb-28 23:00N 37°54' E 023°06'0 0.0
2018-Feb-28 22:30N 37°54' E 023°06'0 0.1
2018-Feb-28 21:59N 37°54' E 023°06'0 0.0
2018-Feb-28 21:30N 37°54' E 023°06'0 0.1
2018-Feb-28 21:00N 37°54' E 023°06'0 0.0
2018-Feb-28 20:30N 37°54' E 023°06'0 0.1
2018-Feb-28 20:00N 37°54' E 023°06'0 0.2
2018-Feb-28 19:30N 37°54' E 023°06'0 0.0
2018-Feb-28 19:00N 37°54' E 023°06'0 0.1
2018-Feb-28 18:30N 37°54' E 023°06'0 0.1
2018-Feb-28 18:00N 37°54' E 023°06'0 0.0
2018-Feb-28 17:30N 37°54' E 023°06'0 0.0
2018-Feb-28 17:00N 37°54' E 023°06'0 0.2
2018-Feb-28 16:30N 37°54' E 023°06'0 0.0
2018-Feb-28 16:00N 37°54' E 023°06'0 0.1
2018-Feb-28 15:30N 37°54' E 023°06'0 0.0
2018-Feb-28 14:59N 37°54' E 023°06'0 0.0
2018-Feb-28 14:30N 37°54' E 023°06'0 0.1
2018-Feb-28 14:00N 37°54' E 023°06'0 0.1
2018-Feb-28 13:30N 37°54' E 023°06'0 0.0
2018-Feb-28 13:00N 37°54' E 023°06'0 0.1
2018-Feb-28 12:30N 37°54' E 023°06'0 0.1
2018-Feb-28 12:00N 37°54' E 023°06'0 0.1
2018-Feb-28 11:30N 37°54' E 023°06'0 0.1
2018-Feb-28 11:00N 37°54' E 023°06'0 0.0
2018-Feb-28 10:30N 37°54' E 023°06'0 0.1
2018-Feb-28 10:00N 37°54' E 023°06'0 0.2
2018-Feb-28 09:30N 37°54' E 023°06'0 0.1
2018-Feb-28 09:00N 37°54' E 023°06'0 0.1
2018-Feb-28 08:30N 37°54' E 023°06'0 0.0
2018-Feb-28 08:00N 37°54' E 023°06'0 0.1
2018-Feb-28 07:30N 37°54' E 023°06'0 0.0
2018-Feb-28 07:00N 37°54' E 023°06'0 0.0
2018-Feb-28 06:31N 37°54' E 023°06'0 0.0
2018-Feb-28 06:01N 37°54' E 023°06'0 0.0
2018-Feb-28 05:31N 37°54' E 023°06'0 0.0
2018-Feb-28 05:01N 37°54' E 023°06'0 0.0
2018-Feb-28 04:31N 37°54' E 023°06'0 0.0
2018-Feb-28 04:01N 37°54' E 023°06'0 0.0
2018-Feb-28 03:30N 37°54' E 023°06'0 0.0
2018-Feb-28 03:00N 37°54' E 023°06'0 0.1
2018-Feb-28 02:31N 37°54' E 023°06'0 0.0
2018-Feb-28 02:00N 37°54' E 023°06'0 0.1
2018-Feb-28 01:31N 37°54' E 023°06'0 0.3
2018-Feb-28 01:01N 37°54' E 023°06'0 0.3
2018-Feb-28 00:30N 37°54' E 023°06'0 0.2
2018-Feb-28 00:00N 37°54' E 023°06'0 0.2
2018-Feb-27 23:30N 37°54' E 023°06'0 0.1
2018-Feb-27 23:01N 37°54' E 023°06'0 0.0
2018-Feb-27 22:30N 37°54' E 023°06'0 0.0
2018-Feb-27 21:59N 37°54' E 023°06'0 0.1
2018-Feb-27 21:31N 37°54' E 023°06'0 0.0
2018-Feb-27 21:00N 37°54' E 023°06'0 0.1
2018-Feb-27 20:31N 37°54' E 023°06'0 0.1
2018-Feb-27 20:01N 37°54' E 023°06'0 0.0
2018-Feb-27 19:30N 37°54' E 023°06'0 0.3
2018-Feb-27 19:01N 37°54' E 023°06'0 0.1
2018-Feb-27 18:30N 37°54' E 023°06'0 0.0
2018-Feb-27 18:00N 37°54' E 023°06'0 0.1
2018-Feb-27 17:30N 37°54' E 023°06'0 0.0
2018-Feb-27 17:00N 37°54' E 023°06'0 0.0
2018-Feb-27 16:30N 37°54' E 023°06'0 0.0
2018-Feb-27 16:00N 37°54' E 023°06'0 0.1
2018-Feb-27 15:30N 37°54' E 023°06'0 0.1
2018-Feb-27 15:00N 37°54' E 023°06'0 0.1
2018-Feb-27 14:30N 37°54' E 023°06'0 0.1
2018-Feb-27 14:00N 37°54' E 023°06'0 0.2
2018-Feb-27 13:30N 37°54' E 023°06'0 0.1
2018-Feb-27 13:00N 37°54' E 023°06'0 0.1
2018-Feb-27 12:30N 37°54' E 023°06'0 0.2
2018-Feb-27 12:00N 37°54' E 023°06'0 0.1
2018-Feb-27 11:30N 37°54' E 023°06'0 0.0
2018-Feb-27 11:00N 37°54' E 023°06'0 0.1
2018-Feb-27 10:30N 37°54' E 023°06'0 0.1
2018-Feb-27 10:00N 37°54' E 023°06'0 0.1
2018-Feb-27 09:30N 37°54' E 023°06'0 0.2
2018-Feb-27 09:00N 37°54' E 023°06'0 0.0
2018-Feb-27 08:30N 37°54' E 023°06'0 0.0
2018-Feb-27 08:00N 37°54' E 023°06'0 0.0
2018-Feb-27 07:30N 37°54' E 023°06'0 0.0
2018-Feb-27 07:00N 37°54' E 023°06'0 0.2
2018-Feb-27 06:30N 37°54' E 023°06'0 0.1
2018-Feb-27 06:00N 37°54' E 023°06'0 0.1
2018-Feb-27 05:30N 37°54' E 023°06'0 0.0
2018-Feb-27 05:00N 37°54' E 023°06'0 0.1
2018-Feb-27 04:30N 37°54' E 023°06'0 0.0
2018-Feb-27 04:00N 37°54' E 023°06'0 0.2
2018-Feb-27 03:30N 37°54' E 023°06'0 0.2
2018-Feb-27 03:00N 37°54' E 023°06'0 0.1
2018-Feb-27 02:30N 37°54' E 023°06'0 0.1
2018-Feb-27 02:00N 37°54' E 023°06'0 0.1
2018-Feb-27 01:30N 37°54' E 023°06'0 0.1
2018-Feb-27 01:00N 37°54' E 023°06'0 0.1
2018-Feb-27 00:30N 37°54' E 023°06'0 0.1
2018-Feb-27 00:01N 37°54' E 023°06'0 0.1
2018-Feb-26 23:30N 37°54' E 023°06'0 0.2
2018-Feb-26 23:00N 37°54' E 023°06'0 0.0
2018-Feb-26 22:30N 37°54' E 023°06'0 0.0
2018-Feb-26 21:59N 37°54' E 023°06'0 0.0
2018-Feb-26 21:30N 37°54' E 023°06'0 0.0
2018-Feb-26 21:00N 37°54' E 023°06'0 0.1
2018-Feb-26 20:30N 37°54' E 023°06'0 0.2
2018-Feb-26 19:59N 37°54' E 023°06'0 0.2
2018-Feb-26 19:30N 37°54' E 023°06'0 0.1
2018-Feb-26 19:00N 37°54' E 023°06'0 0.1
2018-Feb-26 18:30N 37°54' E 023°06'0 0.1
2018-Feb-26 18:00N 37°54' E 023°06'0 0.0
2018-Feb-26 17:30N 37°54' E 023°06'0 0.1
2018-Feb-26 17:00N 37°54' E 023°06'0 0.1
2018-Feb-26 16:30N 37°54' E 023°06'0 0.1
2018-Feb-26 16:00N 37°54' E 023°06'0 0.0
2018-Feb-26 15:30N 37°54' E 023°06'0 0.0
2018-Feb-26 15:00N 37°54' E 023°06'0 0.0
2018-Feb-26 14:30N 37°54' E 023°06'0 0.1
2018-Feb-26 14:00N 37°54' E 023°06'0 0.1
2018-Feb-26 13:30N 37°54' E 023°06'0 0.0
2018-Feb-26 13:00N 37°54' E 023°06'0 0.0
2018-Feb-26 12:30N 37°54' E 023°06'0 0.0
2018-Feb-26 12:00N 37°54' E 023°06'0 0.0
2018-Feb-26 11:30N 37°54' E 023°06'0 0.0
2018-Feb-26 11:00N 37°54' E 023°06'0 0.0
2018-Feb-26 10:30N 37°54' E 023°06'0 0.0
2018-Feb-26 10:00N 37°54' E 023°06'0 0.0
2018-Feb-26 09:30N 37°54' E 023°06'0 0.0
2018-Feb-26 09:00N 37°54' E 023°06'0 0.0
2018-Feb-26 08:30N 37°54' E 023°06'0 0.0
2018-Feb-26 08:00N 37°54' E 023°06'0 0.1
2018-Feb-26 07:30N 37°54' E 023°06'0 0.0
2018-Feb-26 07:00N 37°54' E 023°06'0 0.1
2018-Feb-26 06:30N 37°54' E 023°06'0 0.2
2018-Feb-26 06:00N 37°54' E 023°06'0 0.3
2018-Feb-26 05:30N 37°54' E 023°06'0 0.6
2018-Feb-26 05:00N 37°54' E 023°06'0 0.1
2018-Feb-26 04:30N 37°54' E 023°06'0 0.0
2018-Feb-26 04:00N 37°54' E 023°06'0 0.1
2018-Feb-26 03:30N 37°54' E 023°06'0 0.1
2018-Feb-26 03:00N 37°54' E 023°06'0 0.0
2018-Feb-26 02:30N 37°54' E 023°06'0 0.0
2018-Feb-26 02:00N 37°54' E 023°06'0 0.0
2018-Feb-26 01:30N 37°54' E 023°06'0 0.0
2018-Feb-26 01:00N 37°54' E 023°06'0 0.0
2018-Feb-26 00:30N 37°54' E 023°06'0 0.0
2018-Feb-26 00:00N 37°54' E 023°06'0 0.0
2018-Feb-25 23:30N 37°54' E 023°06'0 0.1
2018-Feb-25 23:00N 37°54' E 023°06'0 0.0
2018-Feb-25 22:30N 37°54' E 023°06'  
Track history (hours):
 
Tides and Currents Weather Stations Pressure Air Temp Water Temp Dewpoint Dewpoint Depression Visibility Wind Speed Wind Dir Waves Ship Positions

Platinum

Last reported at 2018-Mar-07 22:00 UTC. Time now 2018-Jun-18 17:38 UTC.
Position N 31°14' E 032°21'.
Warning: this ship's position is months out of date.

Length 183 m; draft 8.9 m.

Type: Ship (hazmat cat A). MMSI: 239277000.

Date/timePositionNaut miles runAvg speedWind from/ knotsBaromVisibWave heightAir tempDewpointWater temp
2018-Mar-07 22:00N 31°14' E 032°21'5 9.7
2018-Mar-07 21:30N 31°18' E 032°22'4 7.9
2018-Mar-07 21:00N 31°22' E 032°23'2 4.0
2018-Mar-07 20:30N 31°22' E 032°21'1 2.2
2018-Mar-07 19:59N 31°23' E 032°19'0 0.1
2018-Mar-07 19:30N 31°23' E 032°19'0 0.0
2018-Mar-07 19:00N 31°23' E 032°19'0 0.0
2018-Mar-07 17:40N 31°23' E 032°19'0 0.0
2018-Mar-07 17:29N 31°23' E 032°19'0 0.0
2018-Mar-07 17:01N 31°23' E 032°19'0 0.0
2018-Mar-07 16:27N 31°23' E 032°19'0 0.0
2018-Mar-07 15:57N 31°23' E 032°19'0 0.0
2018-Mar-07 15:30N 31°23' E 032°19'0 0.0
2018-Mar-07 15:00N 31°23' E 032°19'0 0.0
2018-Mar-07 14:30N 31°23' E 032°19'0 0.0
2018-Mar-07 14:00N 31°23' E 032°19'0 0.0
2018-Mar-07 13:30N 31°23' E 032°19'0 0.1
2018-Mar-07 13:00N 31°23' E 032°19'0 0.0
2018-Mar-07 12:30N 31°23' E 032°19'0 0.0
2018-Mar-07 11:27N 31°23' E 032°19'0 0.0
2018-Mar-07 10:53N 31°23' E 032°19'0 0.0
2018-Mar-07 10:29N 31°23' E 032°19'126 5.3
2018-Mar-06 10:40N 33°24' E 033°00'81 7.1
2018-Mar-05 23:21N 34°43' E 033°19'0 0.0
2018-Mar-05 23:00N 34°43' E 033°19'0 0.0
2018-Mar-05 22:28N 34°43' E 033°19'0 0.0
2018-Mar-05 03:39N 34°43' E 033°19'8 1.5
2018-Mar-04 22:46N 34°36' E 033°15'411.9
2018-Mar-04 22:28N 34°34' E 033°12'47711.3
2018-Mar-03 04:10N 37°11' E 023°57'211.7
2018-Mar-03 04:00N 37°13' E 023°56'611.5
2018-Mar-03 03:30N 37°19' E 023°53'811.2
2018-Mar-03 02:49N 37°26' E 023°50'411.3
2018-Mar-03 02:27N 37°29' E 023°47'511.2
2018-Mar-03 02:00N 37°34' E 023°45'611.6
2018-Mar-03 01:31N 37°40' E 023°42'611.9
2018-Mar-03 01:01N 37°45' E 023°39'611.4
2018-Mar-03 00:31N 37°50' E 023°35'4 8.5
2018-Mar-03 00:00N 37°51' E 023°30'0 0.1
2018-Mar-02 23:31N 37°51' E 023°30'0 0.3
2018-Mar-02 23:00N 37°51' E 023°31'0 0.2
2018-Mar-02 22:31N 37°51' E 023°30'0 0.1
2018-Mar-02 22:01N 37°52' E 023°30'0 0.1
2018-Mar-02 21:28N 37°52' E 023°30'0 0.1
2018-Mar-02 21:00N 37°52' E 023°30'0 0.1
2018-Mar-02 20:30N 37°51' E 023°30'0 0.1
2018-Mar-02 20:00N 37°52' E 023°30'0 0.2
2018-Mar-02 19:30N 37°51' E 023°30'0 0.0
2018-Mar-02 19:00N 37°51' E 023°30'0 0.1
2018-Mar-02 18:30N 37°51' E 023°30'0 0.2
2018-Mar-02 18:00N 37°52' E 023°30'0 0.1
2018-Mar-02 17:30N 37°51' E 023°30'0 0.1
2018-Mar-02 17:00N 37°51' E 023°30'0 0.1
2018-Mar-02 16:30N 37°51' E 023°30'0 0.1
2018-Mar-02 16:00N 37°51' E 023°30'0 0.0
2018-Mar-02 15:30N 37°51' E 023°30'0 0.0
2018-Mar-02 15:00N 37°51' E 023°30'0 0.1
2018-Mar-02 14:30N 37°51' E 023°30'0 0.1
2018-Mar-02 14:00N 37°52' E 023°30'0 0.2
2018-Mar-02 13:30N 37°51' E 023°30'1 2.7
2018-Mar-02 13:01N 37°51' E 023°29'3 5.5
2018-Mar-02 12:31N 37°51' E 023°25'510.8
2018-Mar-02 12:01N 37°52' E 023°19'510.9
2018-Mar-02 11:31N 37°53' E 023°12'4 8.9
2018-Mar-02 11:00N 37°54' E 023°06'1 1.3
2018-Mar-02 10:30N 37°54' E 023°06'0 0.1
2018-Mar-02 09:59N 37°54' E 023°06'0 0.2
2018-Mar-02 09:29N 37°54' E 023°06'0 0.1
2018-Mar-02 08:59N 37°54' E 023°06'0 0.1
2018-Mar-02 08:30N 37°54' E 023°06'0 0.0
2018-Mar-02 08:00N 37°54' E 023°06'0 0.1
2018-Mar-02 07:31N 37°54' E 023°06'0 0.1
2018-Mar-02 07:01N 37°54' E 023°06'0 0.0
2018-Mar-02 06:30N 37°54' E 023°06'0 0.1
2018-Mar-02 06:01N 37°54' E 023°06'0 0.1
2018-Mar-02 05:30N 37°54' E 023°06'0 0.1
2018-Mar-02 05:01N 37°54' E 023°06'0 0.0
2018-Mar-02 04:31N 37°54' E 023°06'0 0.0
2018-Mar-02 04:01N 37°54' E 023°06'0 0.0
2018-Mar-02 03:30N 37°54' E 023°06'0 0.0
2018-Mar-02 03:00N 37°54' E 023°06'0 0.0
2018-Mar-02 02:30N 37°54' E 023°06'0 0.0
2018-Mar-02 02:00N 37°54' E 023°06'0 0.1
2018-Mar-02 01:30N 37°54' E 023°06'0 0.0
2018-Mar-02 01:00N 37°54' E 023°06'0 0.0
2018-Mar-02 00:29N 37°54' E 023°06'0 0.0
2018-Mar-02 00:00N 37°54' E 023°06'0 0.0
2018-Mar-01 23:30N 37°54' E 023°06'0 0.0
2018-Mar-01 23:01N 37°54' E 023°06'0 0.0
2018-Mar-01 22:31N 37°54' E 023°06'0 0.1
2018-Mar-01 22:01N 37°54' E 023°06'0 0.0
2018-Mar-01 21:31N 37°54' E 023°06'0 0.0
2018-Mar-01 21:01N 37°54' E 023°06'0 0.0
2018-Mar-01 20:30N 37°54' E 023°06'0 0.0
2018-Mar-01 20:01N 37°54' E 023°06'0 0.0
2018-Mar-01 19:30N 37°54' E 023°06'0 0.0
2018-Mar-01 19:00N 37°54' E 023°06'0 0.0
2018-Mar-01 18:31N 37°54' E 023°06'0 0.2
2018-Mar-01 18:00N 37°54' E 023°06'0 0.1
2018-Mar-01 17:30N 37°54' E 023°06'0 0.1
2018-Mar-01 17:00N 37°54' E 023°06'0 0.0
2018-Mar-01 16:30N 37°54' E 023°06'0 0.1
2018-Mar-01 16:01N 37°54' E 023°06'0 0.0
2018-Mar-01 15:30N 37°54' E 023°06'0 0.1
2018-Mar-01 15:00N 37°54' E 023°06'0 0.0
2018-Mar-01 14:30N 37°54' E 023°06'0 0.2
2018-Mar-01 14:00N 37°54' E 023°06'0 0.0
2018-Mar-01 13:30N 37°54' E 023°06'0 0.1
2018-Mar-01 13:00N 37°54' E 023°06'0 0.0
2018-Mar-01 12:30N 37°54' E 023°06'0 0.0
2018-Mar-01 12:00N 37°54' E 023°06'0 0.0
2018-Mar-01 11:30N 37°54' E 023°06'0 0.0
2018-Mar-01 11:00N 37°54' E 023°06'0 0.1
2018-Mar-01 10:30N 37°54' E 023°06'0 0.1
2018-Mar-01 10:00N 37°54' E 023°06'0 0.2
2018-Mar-01 09:30N 37°54' E 023°06'0 0.3
2018-Mar-01 09:00N 37°54' E 023°06'0 0.1
2018-Mar-01 08:31N 37°54' E 023°06'0 0.0
2018-Mar-01 08:00N 37°54' E 023°06'0 0.0
2018-Mar-01 07:30N 37°54' E 023°06'0 0.0
2018-Mar-01 07:01N 37°54' E 023°06'0 0.1
2018-Mar-01 06:30N 37°54' E 023°06'0 0.0
2018-Mar-01 06:00N 37°54' E 023°06'0 0.0
2018-Mar-01 05:31N 37°54' E 023°06'0 0.0
2018-Mar-01 05:00N 37°54' E 023°06'0 0.0
2018-Mar-01 04:30N 37°54' E 023°06'0 0.0
2018-Mar-01 04:00N 37°54' E 023°06'0 0.0
2018-Mar-01 03:30N 37°54' E 023°06'0 0.1
2018-Mar-01 03:01N 37°54' E 023°06'0 0.0
2018-Mar-01 02:30N 37°54' E 023°06'0 0.0
2018-Mar-01 02:00N 37°54' E 023°06'0 0.0
2018-Mar-01 01:30N 37°54' E 023°06'0 0.1
2018-Mar-01 01:00N 37°54' E 023°06'0 0.0
2018-Mar-01 00:30N 37°54' E 023°06'0 0.0
2018-Mar-01 00:00N 37°54' E 023°06'0 0.0
2018-Feb-28 23:30N 37°54' E 023°06'0 0.1
2018-Feb-28 23:00N 37°54' E 023°06'0 0.0
2018-Feb-28 22:30N 37°54' E 023°06'0 0.1
2018-Feb-28 21:59N 37°54' E 023°06'0 0.0
2018-Feb-28 21:30N 37°54' E 023°06'0 0.1
2018-Feb-28 21:00N 37°54' E 023°06'0 0.0
2018-Feb-28 20:30N 37°54' E 023°06'0 0.1
2018-Feb-28 20:00N 37°54' E 023°06'0 0.2
2018-Feb-28 19:30N 37°54' E 023°06'0 0.0
2018-Feb-28 19:00N 37°54' E 023°06'0 0.1
2018-Feb-28 18:30N 37°54' E 023°06'0 0.1
2018-Feb-28 18:00N 37°54' E 023°06'0 0.0
2018-Feb-28 17:30N 37°54' E 023°06'0 0.0
2018-Feb-28 17:00N 37°54' E 023°06'0 0.2
2018-Feb-28 16:30N 37°54' E 023°06'0 0.0
2018-Feb-28 16:00N 37°54' E 023°06'0 0.1
2018-Feb-28 15:30N 37°54' E 023°06'0 0.0
2018-Feb-28 14:59N 37°54' E 023°06'0 0.0
2018-Feb-28 14:30N 37°54' E 023°06'0 0.1
2018-Feb-28 14:00N 37°54' E 023°06'0 0.1
2018-Feb-28 13:30N 37°54' E 023°06'0 0.0
2018-Feb-28 13:00N 37°54' E 023°06'0 0.1
2018-Feb-28 12:30N 37°54' E 023°06'0 0.1
2018-Feb-28 12:00N 37°54' E 023°06'0 0.1
2018-Feb-28 11:30N 37°54' E 023°06'0 0.1
2018-Feb-28 11:00N 37°54' E 023°06'0 0.0
2018-Feb-28 10:30N 37°54' E 023°06'0 0.1
2018-Feb-28 10:00N 37°54' E 023°06'0 0.2
2018-Feb-28 09:30N 37°54' E 023°06'0 0.1
2018-Feb-28 09:00N 37°54' E 023°06'0 0.1
2018-Feb-28 08:30N 37°54' E 023°06'0 0.0
2018-Feb-28 08:00N 37°54' E 023°06'0 0.1
2018-Feb-28 07:30N 37°54' E 023°06'0 0.0
2018-Feb-28 07:00N 37°54' E 023°06'0 0.0
2018-Feb-28 06:31N 37°54' E 023°06'0 0.0
2018-Feb-28 06:01N 37°54' E 023°06'0 0.0
2018-Feb-28 05:31N 37°54' E 023°06'0 0.0
2018-Feb-28 05:01N 37°54' E 023°06'0 0.0
2018-Feb-28 04:31N 37°54' E 023°06'0 0.0
2018-Feb-28 04:01N 37°54' E 023°06'0 0.0
2018-Feb-28 03:30N 37°54' E 023°06'0 0.0
2018-Feb-28 03:00N 37°54' E 023°06'0 0.1
2018-Feb-28 02:31N 37°54' E 023°06'0 0.0
2018-Feb-28 02:00N 37°54' E 023°06'0 0.1
2018-Feb-28 01:31N 37°54' E 023°06'0 0.3
2018-Feb-28 01:01N 37°54' E 023°06'0 0.3
2018-Feb-28 00:30N 37°54' E 023°06'0 0.2
2018-Feb-28 00:00N 37°54' E 023°06'0 0.2
2018-Feb-27 23:30N 37°54' E 023°06'0 0.1
2018-Feb-27 23:01N 37°54' E 023°06'0 0.0
2018-Feb-27 22:30N 37°54' E 023°06'0 0.0
2018-Feb-27 21:59N 37°54' E 023°06'0 0.1
2018-Feb-27 21:31N 37°54' E 023°06'0 0.0
2018-Feb-27 21:00N 37°54' E 023°06'0 0.1
2018-Feb-27 20:31N 37°54' E 023°06'0 0.1
2018-Feb-27 20:01N 37°54' E 023°06'0 0.0
2018-Feb-27 19:30N 37°54' E 023°06'0 0.3
2018-Feb-27 19:01N 37°54' E 023°06'0 0.1
2018-Feb-27 18:30N 37°54' E 023°06'0 0.0
2018-Feb-27 18:00N 37°54' E 023°06'0 0.1
2018-Feb-27 17:30N 37°54' E 023°06'0 0.0
2018-Feb-27 17:00N 37°54' E 023°06'0 0.0
2018-Feb-27 16:30N 37°54' E 023°06'0 0.0
2018-Feb-27 16:00N 37°54' E 023°06'0 0.1
2018-Feb-27 15:30N 37°54' E 023°06'0 0.1
2018-Feb-27 15:00N 37°54' E 023°06'0 0.1
2018-Feb-27 14:30N 37°54' E 023°06'0 0.1
2018-Feb-27 14:00N 37°54' E 023°06'0 0.2
2018-Feb-27 13:30N 37°54' E 023°06'0 0.1
2018-Feb-27 13:00N 37°54' E 023°06'0 0.1
2018-Feb-27 12:30N 37°54' E 023°06'0 0.2
2018-Feb-27 12:00N 37°54' E 023°06'0 0.1
2018-Feb-27 11:30N 37°54' E 023°06'0 0.0
2018-Feb-27 11:00N 37°54' E 023°06'0 0.1
2018-Feb-27 10:30N 37°54' E 023°06'0 0.1
2018-Feb-27 10:00N 37°54' E 023°06'0 0.1
2018-Feb-27 09:30N 37°54' E 023°06'0 0.2
2018-Feb-27 09:00N 37°54' E 023°06'0 0.0
2018-Feb-27 08:30N 37°54' E 023°06'0 0.0
2018-Feb-27 08:00N 37°54' E 023°06'0 0.0
2018-Feb-27 07:30N 37°54' E 023°06'0 0.0
2018-Feb-27 07:00N 37°54' E 023°06'0 0.2
2018-Feb-27 06:30N 37°54' E 023°06'0 0.1
2018-Feb-27 06:00N 37°54' E 023°06'0 0.1
2018-Feb-27 05:30N 37°54' E 023°06'0 0.0
2018-Feb-27 05:00N 37°54' E 023°06'0 0.1
2018-Feb-27 04:30N 37°54' E 023°06'0 0.0
2018-Feb-27 04:00N 37°54' E 023°06'0 0.2
2018-Feb-27 03:30N 37°54' E 023°06'0 0.2
2018-Feb-27 03:00N 37°54' E 023°06'0 0.1
2018-Feb-27 02:30N 37°54' E 023°06'0 0.1
2018-Feb-27 02:00N 37°54' E 023°06'0 0.1
2018-Feb-27 01:30N 37°54' E 023°06'0 0.1
2018-Feb-27 01:00N 37°54' E 023°06'0 0.1
2018-Feb-27 00:30N 37°54' E 023°06'0 0.1
2018-Feb-27 00:01N 37°54' E 023°06'0 0.1
2018-Feb-26 23:30N 37°54' E 023°06'0 0.2
2018-Feb-26 23:00N 37°54' E 023°06'0 0.0
2018-Feb-26 22:30N 37°54' E 023°06'0 0.0
2018-Feb-26 21:59N 37°54' E 023°06'0 0.0
2018-Feb-26 21:30N 37°54' E 023°06'0 0.0
2018-Feb-26 21:00N 37°54' E 023°06'0 0.1
2018-Feb-26 20:30N 37°54' E 023°06'0 0.2
2018-Feb-26 19:59N 37°54' E 023°06'0 0.2
2018-Feb-26 19:30N 37°54' E 023°06'0 0.1
2018-Feb-26 19:00N 37°54' E 023°06'0 0.1
2018-Feb-26 18:30N 37°54' E 023°06'0 0.1
2018-Feb-26 18:00N 37°54' E 023°06'0 0.0
2018-Feb-26 17:30N 37°54' E 023°06'0 0.1
2018-Feb-26 17:00N 37°54' E 023°06'0 0.1
2018-Feb-26 16:30N 37°54' E 023°06'0 0.1
2018-Feb-26 16:00N 37°54' E 023°06'0 0.0
2018-Feb-26 15:30N 37°54' E 023°06'0 0.0
2018-Feb-26 15:00N 37°54' E 023°06'0 0.0
2018-Feb-26 14:30N 37°54' E 023°06'0 0.1
2018-Feb-26 14:00N 37°54' E 023°06'0 0.1
2018-Feb-26 13:30N 37°54' E 023°06'0 0.0
2018-Feb-26 13:00N 37°54' E 023°06'0 0.0
2018-Feb-26 12:30N 37°54' E 023°06'0 0.0
2018-Feb-26 12:00N 37°54' E 023°06'0 0.0
2018-Feb-26 11:30N 37°54' E 023°06'0 0.0
2018-Feb-26 11:00N 37°54' E 023°06'0 0.0
2018-Feb-26 10:30N 37°54' E 023°06'0 0.0
2018-Feb-26 10:00N 37°54' E 023°06'0 0.0
2018-Feb-26 09:30N 37°54' E 023°06'0 0.0
2018-Feb-26 09:00N 37°54' E 023°06'0 0.0
2018-Feb-26 08:30N 37°54' E 023°06'0 0.0
2018-Feb-26 08:00N 37°54' E 023°06'0 0.1
2018-Feb-26 07:30N 37°54' E 023°06'0 0.0
2018-Feb-26 07:00N 37°54' E 023°06'0 0.1
2018-Feb-26 06:30N 37°54' E 023°06'0 0.2
2018-Feb-26 06:00N 37°54' E 023°06'0 0.3
2018-Feb-26 05:30N 37°54' E 023°06'0 0.6
2018-Feb-26 05:00N 37°54' E 023°06'0 0.1
2018-Feb-26 04:30N 37°54' E 023°06'0 0.0
2018-Feb-26 04:00N 37°54' E 023°06'0 0.1
2018-Feb-26 03:30N 37°54' E 023°06'0 0.1
2018-Feb-26 03:00N 37°54' E 023°06'0 0.0
2018-Feb-26 02:30N 37°54' E 023°06'0 0.0
2018-Feb-26 02:00N 37°54' E 023°06'0 0.0
2018-Feb-26 01:30N 37°54' E 023°06'0 0.0
2018-Feb-26 01:00N 37°54' E 023°06'0 0.0
2018-Feb-26 00:30N 37°54' E 023°06'0 0.0
2018-Feb-26 00:00N 37°54' E 023°06'0 0.0
2018-Feb-25 23:30N 37°54' E 023°06'0 0.1
2018-Feb-25 23:00N 37°54' E 023°06'0 0.0
2018-Feb-25 22:30N 37°54' E 023°06'  

Dump ship's entire track history